Hakuhomaru — JJ4011 — position and weather

sailwx.info

Track history (hours):
 
Tides and Currents Weather Stations Pressure Air Temp Water Temp Dewpoint Dewpoint Depression Visibility Wind Speed Wind Dir Waves Ship Positions

Hakuhomaru

Last reported at 2017-May-26 01:46 UTC. Time now 2017-Aug-23 23:14 UTC.
Position N 34°36' E 135°06'.
Warning: this ship's position is months out of date.

Length 38 m; draft 3.3 m.

Type: Tug. MMSI: 431401584.

Date/timePositionNaut miles runAvg speedWind from/ knotsBaromVisibWave heightAir tempDewpointWater temp
2017-May-26 01:46N 34°36' E 135°06'312.9
2017-May-26 01:30N 34°36' E 135°10'813.8
2017-May-26 00:56N 34°37' E 135°19'613.1
2017-May-26 00:30N 34°39' E 135°26'3 0.1
2017-May-23 23:57N 34°39' E 135°29'3 5.9
2017-May-23 23:30N 34°39' E 135°26'1 1.3
2017-May-23 23:00N 34°39' E 135°25'2 4.0
2017-May-23 22:30N 34°39' E 135°22'3 6.0
2017-May-23 22:00N 34°40' E 135°19'5 9.2
2017-May-23 21:30N 34°41' E 135°14'1 2.7
2017-May-23 21:00N 34°41' E 135°12'0 0.0
2017-May-23 20:30N 34°41' E 135°12'0 0.0
2017-May-23 06:55N 34°41' E 135°12'0 0.0
2017-May-23 06:30N 34°41' E 135°12'0 0.0
2017-May-23 06:00N 34°41' E 135°12'1 2.2
2017-May-23 05:30N 34°41' E 135°13'3 6.7
2017-May-23 05:00N 34°41' E 135°17'0 0.6
2017-May-23 04:28N 34°41' E 135°18'1 1.3
2017-May-23 04:00N 34°40' E 135°18'2 4.8
2017-May-23 03:30N 34°41' E 135°15'2 4.6
2017-May-23 03:00N 34°41' E 135°12'0 0.0
2017-May-23 02:30N 34°41' E 135°12'0 0.0
2017-May-23 02:00N 34°41' E 135°12'0 0.0
2017-May-23 01:30N 34°41' E 135°12'0 0.0
2017-May-23 01:00N 34°41' E 135°12'0 0.0
2017-May-23 00:30N 34°41' E 135°12'0 0.0
2017-May-23 00:00N 34°41' E 135°12'4 7.3
2017-May-22 23:30N 34°42' E 135°16'1 1.2
2017-May-22 23:00N 34°42' E 135°17'1 1.3
2017-May-22 22:30N 34°42' E 135°18'2 3.1
2017-May-22 22:00N 34°41' E 135°17'4 7.3
2017-May-22 21:30N 34°41' E 135°12'0 0.5
2017-May-22 21:00N 34°41' E 135°12'0 0.0
2017-May-22 03:17N 34°41' E 135°12'  
2017-May-19 21:28N 34°41' E 135°12'2 4.2
2017-May-19 21:00N 34°40' E 135°14'1 1.8
2017-May-19 20:30N 34°40' E 135°13'0 0.0
2017-May-19 20:00N 34°40' E 135°13'0 0.0
2017-May-19 19:30N 34°40' E 135°13'0 0.0
2017-May-19 19:00N 34°40' E 135°13'0 0.0
2017-May-19 18:30N 34°40' E 135°13'0 0.0
2017-May-19 18:00N 34°40' E 135°13'0 0.0
2017-May-19 17:30N 34°40' E 135°13'0 0.0
2017-May-19 17:00N 34°40' E 135°13'0 0.0
2017-May-19 16:30N 34°40' E 135°13'0 0.0
2017-May-19 16:00N 34°40' E 135°13'0 0.3
2017-May-19 15:30N 34°40' E 135°13'2 4.8
2017-May-19 15:00N 34°42' E 135°15'3 2.7
2017-May-19 14:00N 34°39' E 135°15'0 0.0
2017-May-19 13:30N 34°39' E 135°15'0 0.6
2017-May-19 13:00N 34°39' E 135°15'0 0.0
2017-May-19 12:30N 34°39' E 135°15'0 0.8
2017-May-19 12:00N 34°39' E 135°15'0 0.5
2017-May-19 11:30N 34°40' E 135°15'1 2.1
2017-May-19 11:00N 34°40' E 135°13'0 0.0
2017-May-19 10:30N 34°40' E 135°13'0 0.0
2017-May-19 10:00N 34°40' E 135°13'0 0.0
2017-May-19 09:30N 34°40' E 135°13'0 0.0
2017-May-19 09:00N 34°40' E 135°13'0 0.1
2017-May-19 08:30N 34°40' E 135°13'4 7.4
2017-May-19 07:59N 34°41' E 135°18'0 0.9
2017-May-19 07:30N 34°41' E 135°17'4 7.6
2017-May-19 07:00N 34°41' E 135°13'0 0.0
2017-May-19 06:30N 34°41' E 135°13'1 1.6
2017-May-19 06:00N 34°40' E 135°13'0 0.2
2017-May-19 05:30N 34°40' E 135°13'0 1.0
2017-May-19 05:00N 34°41' E 135°13'1 1.6
2017-May-19 04:30N 34°41' E 135°12'0 0.0
2017-May-19 04:00N 34°41' E 135°12'0 0.0
2017-May-19 03:30N 34°41' E 135°12'0 0.0
2017-May-19 03:00N 34°41' E 135°12'0 0.0
2017-May-19 02:30N 34°41' E 135°12'0 0.0
2017-May-19 02:00N 34°41' E 135°12'0 0.0
2017-May-19 01:30N 34°41' E 135°12'0 0.0
2017-May-19 01:00N 34°41' E 135°12'0 0.0
2017-May-19 00:30N 34°41' E 135°12'0 0.0
2017-May-19 00:00N 34°41' E 135°12'0 0.6
2017-May-18 23:30N 34°40' E 135°12'3 6.2
2017-May-18 23:00N 34°41' E 135°16'0 0.7
2017-May-18 22:30N 34°41' E 135°15'1 2.3
2017-May-18 22:00N 34°39' E 135°15'2 3.2
2017-May-18 21:30N 34°41' E 135°14'2 3.2
2017-May-18 21:00N 34°41' E 135°12'  
2017-May-16 02:13N 34°41' E 135°12'0 0.0
2017-May-16 02:00N 34°41' E 135°12'  
Track history (hours):
 
Tides and Currents Weather Stations Pressure Air Temp Water Temp Dewpoint Dewpoint Depression Visibility Wind Speed Wind Dir Waves Ship Positions

Hakuhomaru

Last reported at 2017-May-26 01:46 UTC. Time now 2017-Aug-23 23:14 UTC.
Position N 34°36' E 135°06'.
Warning: this ship's position is months out of date.

Length 38 m; draft 3.3 m.

Type: Tug. MMSI: 431401584.

Date/timePositionNaut miles runAvg speedWind from/ knotsBaromVisibWave heightAir tempDewpointWater temp
2017-May-26 01:46N 34°36' E 135°06'312.9
2017-May-26 01:30N 34°36' E 135°10'813.8
2017-May-26 00:56N 34°37' E 135°19'613.1
2017-May-26 00:30N 34°39' E 135°26'3 0.1
2017-May-23 23:57N 34°39' E 135°29'3 5.9
2017-May-23 23:30N 34°39' E 135°26'1 1.3
2017-May-23 23:00N 34°39' E 135°25'2 4.0
2017-May-23 22:30N 34°39' E 135°22'3 6.0
2017-May-23 22:00N 34°40' E 135°19'5 9.2
2017-May-23 21:30N 34°41' E 135°14'1 2.7
2017-May-23 21:00N 34°41' E 135°12'0 0.0
2017-May-23 20:30N 34°41' E 135°12'0 0.0
2017-May-23 06:55N 34°41' E 135°12'0 0.0
2017-May-23 06:30N 34°41' E 135°12'0 0.0
2017-May-23 06:00N 34°41' E 135°12'1 2.2
2017-May-23 05:30N 34°41' E 135°13'3 6.7
2017-May-23 05:00N 34°41' E 135°17'0 0.6
2017-May-23 04:28N 34°41' E 135°18'1 1.3
2017-May-23 04:00N 34°40' E 135°18'2 4.8
2017-May-23 03:30N 34°41' E 135°15'2 4.6
2017-May-23 03:00N 34°41' E 135°12'0 0.0
2017-May-23 02:30N 34°41' E 135°12'0 0.0
2017-May-23 02:00N 34°41' E 135°12'0 0.0
2017-May-23 01:30N 34°41' E 135°12'0 0.0
2017-May-23 01:00N 34°41' E 135°12'0 0.0
2017-May-23 00:30N 34°41' E 135°12'0 0.0
2017-May-23 00:00N 34°41' E 135°12'4 7.3
2017-May-22 23:30N 34°42' E 135°16'1 1.2
2017-May-22 23:00N 34°42' E 135°17'1 1.3
2017-May-22 22:30N 34°42' E 135°18'2 3.1
2017-May-22 22:00N 34°41' E 135°17'4 7.3
2017-May-22 21:30N 34°41' E 135°12'0 0.5
2017-May-22 21:00N 34°41' E 135°12'0 0.0
2017-May-22 03:17N 34°41' E 135°12'  
2017-May-19 21:28N 34°41' E 135°12'2 4.2
2017-May-19 21:00N 34°40' E 135°14'1 1.8
2017-May-19 20:30N 34°40' E 135°13'0 0.0
2017-May-19 20:00N 34°40' E 135°13'0 0.0
2017-May-19 19:30N 34°40' E 135°13'0 0.0
2017-May-19 19:00N 34°40' E 135°13'0 0.0
2017-May-19 18:30N 34°40' E 135°13'0 0.0
2017-May-19 18:00N 34°40' E 135°13'0 0.0
2017-May-19 17:30N 34°40' E 135°13'0 0.0
2017-May-19 17:00N 34°40' E 135°13'0 0.0
2017-May-19 16:30N 34°40' E 135°13'0 0.0
2017-May-19 16:00N 34°40' E 135°13'0 0.3
2017-May-19 15:30N 34°40' E 135°13'2 4.8
2017-May-19 15:00N 34°42' E 135°15'3 2.7
2017-May-19 14:00N 34°39' E 135°15'0 0.0
2017-May-19 13:30N 34°39' E 135°15'0 0.6
2017-May-19 13:00N 34°39' E 135°15'0 0.0
2017-May-19 12:30N 34°39' E 135°15'0 0.8
2017-May-19 12:00N 34°39' E 135°15'0 0.5
2017-May-19 11:30N 34°40' E 135°15'1 2.1
2017-May-19 11:00N 34°40' E 135°13'0 0.0
2017-May-19 10:30N 34°40' E 135°13'0 0.0
2017-May-19 10:00N 34°40' E 135°13'0 0.0
2017-May-19 09:30N 34°40' E 135°13'0 0.0
2017-May-19 09:00N 34°40' E 135°13'0 0.1
2017-May-19 08:30N 34°40' E 135°13'4 7.4
2017-May-19 07:59N 34°41' E 135°18'0 0.9
2017-May-19 07:30N 34°41' E 135°17'4 7.6
2017-May-19 07:00N 34°41' E 135°13'0 0.0
2017-May-19 06:30N 34°41' E 135°13'1 1.6
2017-May-19 06:00N 34°40' E 135°13'0 0.2
2017-May-19 05:30N 34°40' E 135°13'0 1.0
2017-May-19 05:00N 34°41' E 135°13'1 1.6
2017-May-19 04:30N 34°41' E 135°12'0 0.0
2017-May-19 04:00N 34°41' E 135°12'0 0.0
2017-May-19 03:30N 34°41' E 135°12'0 0.0
2017-May-19 03:00N 34°41' E 135°12'0 0.0
2017-May-19 02:30N 34°41' E 135°12'0 0.0
2017-May-19 02:00N 34°41' E 135°12'0 0.0
2017-May-19 01:30N 34°41' E 135°12'0 0.0
2017-May-19 01:00N 34°41' E 135°12'0 0.0
2017-May-19 00:30N 34°41' E 135°12'0 0.0
2017-May-19 00:00N 34°41' E 135°12'0 0.6
2017-May-18 23:30N 34°40' E 135°12'3 6.2
2017-May-18 23:00N 34°41' E 135°16'0 0.7
2017-May-18 22:30N 34°41' E 135°15'1 2.3
2017-May-18 22:00N 34°39' E 135°15'2 3.2
2017-May-18 21:30N 34°41' E 135°14'2 3.2
2017-May-18 21:00N 34°41' E 135°12'  
2017-May-16 02:13N 34°41' E 135°12'0 0.0
2017-May-16 02:00N 34°41' E 135°12'  

Dump ship's entire track history